< < Back
Terminal Aerodrome Forecast


Current Version              Previous Versions:   1  2  3  4  5  6  7  8  9  

Terminal Aerodrome Forecast

462
FTAK31 PAJN 010536
TAFAGS
TAF
PAGS 010536Z 0106/0206 13015KT P6SM SCT025 BKN040 OVC060
      WS020/12035KT
      TEMPO 0106/0110 13015G25KT 6SM -RA BR BKN025 OVC040
     FM011000 14010G20KT 6SM -SHRA BKN025 OVC040
     FM011800 12010KT 4SM -RA BR FEW006 BKN025 OVC040 WS020/20030KT
     FM012200 12010KT 3SM RA BR SCT006 OVC010
      AMD LTD TO CLD VIS AND WIND=

Latest METAR

249
SAUS70 KWBC 011000 RRQ
MTRAGS
METAR KAGS 010953Z AUTO 14006KT 10SM BKN012 OVC019 22/21 A3000 RMK AO2
LTG DSNT W SLP157 T02220206


USA.gov is the U.S. government's official web portal to all federal, state and local government web resources and services.